createdAt,value
2024-01-20T00:04:24.545Z,0
2024-01-20T00:10:46.399Z,0
2024-01-20T00:17:09.045Z,0
2024-01-20T00:23:28.438Z,0
2024-01-20T00:29:48.757Z,0
2024-01-20T00:36:10.570Z,0
2024-01-20T00:42:30.572Z,0
2024-01-20T00:48:52.454Z,0
2024-01-20T00:55:12.519Z,0
2024-01-20T01:01:34.375Z,0
2024-01-20T01:07:54.431Z,0
2024-01-20T01:14:16.542Z,0
2024-01-20T01:20:36.487Z,0
2024-01-20T01:26:58.509Z,0
2024-01-20T01:33:18.558Z,0
2024-01-20T01:39:39.467Z,0
2024-01-20T01:45:59.515Z,0
2024-01-20T01:52:21.449Z,0
2024-01-20T01:58:41.446Z,0
2024-01-20T02:05:03.526Z,0
2024-01-20T02:11:23.615Z,0
2024-01-20T02:17:45.471Z,0
2024-01-20T02:24:05.648Z,0
2024-01-20T02:30:27.657Z,0
2024-01-20T02:36:47.503Z,0
2024-01-20T02:43:09.562Z,0
2024-01-20T02:49:29.465Z,0
2024-01-20T02:55:51.386Z,0
2024-01-20T03:02:11.513Z,0
2024-01-20T03:08:33.584Z,0
2024-01-20T03:14:53.741Z,0
2024-01-20T03:21:15.414Z,0
2024-01-20T03:27:35.452Z,0
2024-01-20T03:33:57.451Z,0
2024-01-20T03:40:17.406Z,0
2024-01-20T03:46:39.511Z,0
2024-01-20T03:52:59.451Z,0
2024-01-20T04:09:24.838Z,0
2024-01-20T04:15:44.373Z,0
2024-01-20T04:22:06.418Z,0
2024-01-20T04:28:26.400Z,0
2024-01-20T04:34:48.377Z,0
2024-01-20T04:41:08.557Z,0
2024-01-20T04:47:30.412Z,0
2024-01-20T04:53:50.460Z,0
2024-01-20T05:00:12.477Z,0
2024-01-20T05:06:32.502Z,0
2024-01-20T05:12:54.399Z,0
2024-01-20T05:19:14.788Z,0
2024-01-20T05:25:36.472Z,0
2024-01-20T05:31:56.649Z,0
2024-01-20T05:38:18.379Z,0
2024-01-20T05:44:38.429Z,0
2024-01-20T05:51:00.445Z,0
2024-01-20T05:57:20.439Z,0
2024-01-20T06:03:42.750Z,0
2024-01-20T06:10:02.520Z,0
2024-01-20T06:16:24.420Z,0
2024-01-20T06:22:44.455Z,0
2024-01-20T06:29:06.628Z,0
2024-01-20T06:35:26.435Z,0
2024-01-20T06:41:48.514Z,0
2024-01-20T06:48:08.626Z,0
2024-01-20T06:54:30.542Z,0
2024-01-20T07:00:50.629Z,0
2024-01-20T07:07:12.517Z,0
2024-01-20T07:13:32.382Z,0
2024-01-20T07:19:54.671Z,0
2024-01-20T07:26:14.414Z,0
2024-01-20T07:32:36.453Z,0
2024-01-20T07:38:56.482Z,0
2024-01-20T07:45:18.618Z,0
2024-01-20T07:51:38.578Z,0
2024-01-20T07:58:00.558Z,5.62
2024-01-20T08:04:20.378Z,5.62
2024-01-20T08:10:42.440Z,5.62
2024-01-20T08:17:02.442Z,5.62
2024-01-20T08:23:24.542Z,11.25
2024-01-20T08:29:44.420Z,11.25
2024-01-20T08:36:06.461Z,11.25
2024-01-20T08:42:26.431Z,11.25
2024-01-20T09:06:06.379Z,22.5
2024-01-20T09:12:27.382Z,22.5
2024-01-20T09:18:47.629Z,28.12
2024-01-20T09:25:09.458Z,28.12
2024-01-20T09:31:29.408Z,33.75
2024-01-20T09:37:51.397Z,33.75
2024-01-20T09:44:11.452Z,33.75
2024-01-20T09:50:33.370Z,39.38
2024-01-20T09:56:53.622Z,39.38
2024-01-20T10:03:15.515Z,45
2024-01-20T10:09:35.498Z,45
2024-01-20T10:15:57.458Z,50.62
2024-01-20T10:22:17.449Z,56.25
2024-01-20T10:28:39.340Z,56.25
2024-01-20T10:34:59.440Z,56.25
2024-01-20T10:41:21.395Z,61.88
2024-01-20T10:47:41.446Z,61.88
2024-01-20T10:54:03.430Z,67.5
2024-01-20T11:00:23.526Z,67.5
2024-01-20T11:06:45.411Z,67.5
2024-01-20T11:13:05.432Z,67.5
2024-01-20T11:19:27.546Z,67.5
2024-01-20T11:25:47.412Z,67.5
2024-01-20T11:32:09.466Z,67.5
2024-01-20T11:38:29.429Z,67.5
2024-01-20T11:44:51.399Z,73.12
2024-01-20T11:51:11.525Z,73.12
2024-01-20T11:57:33.432Z,73.12
2024-01-20T12:03:53.467Z,73.12
2024-01-20T12:10:15.444Z,73.12
2024-01-20T12:16:35.522Z,73.12
2024-01-20T12:22:57.546Z,78.75
2024-01-20T12:29:17.376Z,78.75
2024-01-20T12:35:39.675Z,78.75
2024-01-20T12:41:59.571Z,78.75
2024-01-20T12:48:21.616Z,78.75
2024-01-20T12:54:41.605Z,78.75
2024-01-20T13:01:03.476Z,78.75
2024-01-20T13:07:23.503Z,84.38
2024-01-20T13:13:45.476Z,78.75
2024-01-20T13:20:05.479Z,78.75
2024-01-20T13:26:27.475Z,67.5
2024-01-20T13:32:47.470Z,73.12
2024-01-20T13:39:09.436Z,73.12
2024-01-20T13:45:29.547Z,73.12
2024-01-20T14:02:37.944Z,50.62
2024-01-20T14:08:57.374Z,50.62
2024-01-20T14:15:19.559Z,50.62
2024-01-20T14:21:39.720Z,39.38
2024-01-20T14:28:01.852Z,33.75
2024-01-20T14:34:21.582Z,28.12
2024-01-20T14:40:43.547Z,22.5
2024-01-20T14:47:03.400Z,11.25
2024-01-20T14:53:25.438Z,16.88
2024-01-20T14:59:45.466Z,11.25
2024-01-20T15:06:07.611Z,11.25
2024-01-20T15:12:27.626Z,11.25
2024-01-20T15:18:49.524Z,5.62
2024-01-20T15:25:09.522Z,5.62
2024-01-20T15:31:31.518Z,0
2024-01-20T15:37:51.425Z,0
2024-01-20T15:44:14.404Z,0
2024-01-20T15:50:33.409Z,0
2024-01-20T15:56:55.733Z,0
2024-01-20T16:03:15.618Z,0
2024-01-20T16:09:37.483Z,0
2024-01-20T16:15:57.584Z,0
2024-01-20T16:22:19.642Z,0
2024-01-20T16:28:39.465Z,0
2024-01-20T16:35:01.446Z,0
2024-01-20T16:41:21.415Z,0
2024-01-20T16:47:43.612Z,0
2024-01-20T16:54:03.491Z,0
2024-01-20T17:00:25.510Z,0
2024-01-20T17:06:45.583Z,0
2024-01-20T17:13:07.637Z,0
2024-01-20T17:19:27.532Z,0
2024-01-20T17:25:49.613Z,0
2024-01-20T17:32:09.419Z,0
2024-01-20T17:38:31.524Z,0
2024-01-20T17:44:51.425Z,0
2024-01-20T17:51:13.628Z,0
2024-01-20T17:57:33.436Z,0
2024-01-20T18:03:55.858Z,0
2024-01-20T18:21:02.325Z,0
2024-01-20T18:27:23.373Z,0
2024-01-20T18:33:43.434Z,0
2024-01-20T18:40:05.394Z,0
2024-01-20T18:46:24.422Z,0
2024-01-20T18:52:46.420Z,0
2024-01-20T18:59:06.573Z,0
2024-01-20T19:05:28.615Z,0
2024-01-20T19:11:48.414Z,0
2024-01-20T19:18:10.896Z,0
2024-01-20T19:24:30.452Z,0
2024-01-20T19:30:52.510Z,0
2024-01-20T19:37:12.587Z,0
2024-01-20T19:43:34.600Z,0
2024-01-20T19:49:54.743Z,0
2024-01-20T19:56:16.449Z,0
2024-01-20T20:02:36.388Z,0
2024-01-20T20:08:58.394Z,0
2024-01-20T20:15:18.508Z,0
2024-01-20T20:21:40.600Z,0
2024-01-20T20:28:00.385Z,0
2024-01-20T20:34:22.792Z,0
2024-01-20T20:40:42.448Z,0
2024-01-20T20:47:04.590Z,0
2024-01-20T20:53:24.557Z,0
2024-01-20T20:59:46.399Z,0
2024-01-20T21:06:06.512Z,0
2024-01-20T21:12:28.664Z,0
2024-01-20T21:18:48.524Z,0
2024-01-20T21:25:10.526Z,0
2024-01-20T21:31:30.616Z,0
2024-01-20T21:37:52.830Z,0
2024-01-20T21:44:12.598Z,0
2024-01-20T21:50:34.597Z,0
2024-01-20T21:56:54.385Z,0
2024-01-20T22:03:16.602Z,0
2024-01-20T22:09:36.456Z,0
2024-01-20T22:15:58.611Z,0
2024-01-20T22:22:18.539Z,0
2024-01-20T22:28:40.433Z,0
2024-01-20T22:35:00.439Z,0
2024-01-20T22:41:22.393Z,0
2024-01-20T22:57:46.418Z,0
2024-01-20T23:19:33.519Z,0
2024-01-20T23:25:53.436Z,0
2024-01-20T23:32:15.575Z,0
2024-01-20T23:38:35.446Z,0
2024-01-20T23:44:57.503Z,0
2024-01-20T23:51:17.410Z,0
2024-01-20T23:57:42.428Z,0
